createdAt,value
2019-03-02T00:02:12.876Z,88.67
2019-03-02T00:04:45.875Z,97.90
2019-03-02T00:07:13.538Z,103.50
2019-03-02T00:09:43.040Z,120.30
2019-03-02T00:12:12.550Z,121.57
2019-03-02T00:14:42.471Z,118.63
2019-03-02T00:17:11.594Z,104.63
2019-03-02T00:19:41.920Z,96.20
2019-03-02T00:22:12.161Z,98.57
2019-03-02T00:24:42.281Z,118.77
2019-03-02T00:27:12.266Z,109.33
2019-03-02T00:29:42.489Z,99.27
2019-03-02T00:32:13.589Z,96.03
2019-03-02T00:34:43.083Z,97.67
2019-03-02T00:37:13.273Z,92.33
2019-03-02T00:39:42.747Z,94.87
2019-03-02T00:42:13.546Z,83.07
2019-03-02T00:44:43.499Z,85.67
2019-03-02T00:47:12.962Z,85.40
2019-03-02T00:49:42.358Z,92.87
2019-03-02T00:52:12.167Z,89.87
2019-03-02T00:54:43.353Z,94.13
2019-03-02T00:57:14.751Z,94.20
2019-03-02T00:59:44.292Z,99.70
2019-03-02T01:02:14.101Z,95.53
2019-03-02T01:04:43.965Z,97.07
2019-03-02T01:07:14.068Z,99.83
2019-03-02T01:09:46.217Z,101.70
2019-03-02T01:12:14.828Z,99.67
2019-03-02T01:14:44.306Z,88.77
2019-03-02T01:17:14.127Z,100.33
2019-03-02T01:19:43.654Z,95.97
2019-03-02T01:22:13.508Z,98.43
2019-03-02T01:24:44.309Z,87.23
2019-03-02T01:27:14.366Z,88.43
2019-03-02T01:29:43.984Z,87.70
2019-03-02T01:32:16.211Z,88.63
2019-03-02T01:34:44.666Z,84.60
2019-03-02T01:37:14.868Z,77.90
2019-03-02T01:39:44.456Z,82.83
2019-03-02T01:42:14.274Z,73.43
2019-03-02T01:44:43.725Z,78.50
2019-03-02T01:47:15.847Z,75.77
2019-03-02T01:49:44.695Z,71.60
2019-03-02T01:52:13.833Z,77.93
2019-03-02T01:54:43.418Z,66.37
2019-03-02T01:57:13.712Z,73.20
2019-03-02T01:59:44.272Z,71.73
2019-03-02T02:02:14.111Z,66.03
2019-03-02T02:04:43.906Z,71.67
2019-03-02T02:07:14.444Z,66.80
2019-03-02T02:09:44.571Z,68.33
2019-03-02T02:12:14.416Z,70.43
2019-03-02T02:14:43.973Z,68.07
2019-03-02T02:17:14.426Z,63.00
2019-03-02T02:19:43.868Z,62.37
2019-03-02T02:22:13.340Z,58.03
2019-03-02T02:24:42.851Z,62.17
2019-03-02T02:27:12.815Z,58.70
2019-03-02T02:29:43.519Z,54.97
2019-03-02T02:32:13.427Z,59.43
2019-03-02T02:34:42.579Z,56.07
2019-03-02T02:37:12.356Z,59.50
2019-03-02T02:39:41.890Z,61.40
2019-03-02T02:42:11.132Z,61.93
2019-03-02T02:44:41.464Z,59.07
2019-03-02T02:47:12.196Z,64.37
2019-03-02T02:49:44.426Z,63.53
2019-03-02T02:52:13.414Z,58.17
2019-03-02T02:54:43.291Z,58.73
2019-03-02T02:57:12.829Z,60.97
2019-03-02T02:59:42.344Z,56.23
2019-03-02T03:02:12.271Z,58.07
2019-03-02T03:04:41.860Z,62.40
2019-03-02T03:07:12.801Z,59.37
2019-03-02T03:09:59.701Z,60.70
2019-03-02T03:12:29.194Z,55.97
2019-03-02T03:14:59.655Z,60.43
2019-03-02T03:17:32.410Z,61.40
2019-03-02T03:20:05.468Z,62.70
2019-03-02T03:22:31.656Z,59.03
2019-03-02T03:25:04.000Z,65.87
2019-03-02T03:27:32.366Z,64.33
2019-03-02T03:30:01.818Z,67.23
2019-03-02T03:32:31.687Z,73.80
2019-03-02T03:35:15.484Z,110.13
2019-03-02T03:37:33.124Z,103.53
2019-03-02T03:40:02.988Z,99.67
2019-03-02T03:42:33.119Z,96.23
2019-03-02T03:45:04.364Z,100.97
2019-03-02T03:47:38.434Z,94.90
2019-03-02T03:50:09.179Z,109.53
2019-03-02T03:52:37.533Z,128.07
2019-03-02T03:55:07.048Z,118.97
2019-03-02T03:57:36.790Z,121.33
2019-03-02T04:00:09.351Z,123.07
2019-03-02T04:02:38.983Z,116.40
2019-03-02T04:05:10.149Z,116.23
2019-03-02T04:07:48.489Z,102.20
2019-03-02T04:10:13.414Z,102.33
2019-03-02T04:12:42.887Z,100.63
2019-03-02T04:15:12.087Z,111.23
2019-03-02T04:17:41.721Z,102.87
2019-03-02T04:20:15.067Z,114.57
2019-03-02T04:22:45.996Z,117.47
2019-03-02T04:25:17.840Z,123.70
2019-03-02T04:27:53.637Z,132.60
2019-03-02T04:30:19.787Z,129.20
2019-03-02T04:32:49.470Z,124.50
2019-03-02T04:35:19.397Z,130.17
2019-03-02T04:37:48.864Z,124.17
2019-03-02T04:40:23.306Z,117.47
2019-03-02T04:42:51.543Z,113.80
2019-03-02T04:45:21.196Z,108.50
2019-03-02T04:47:51.290Z,114.83
2019-03-02T04:50:23.492Z,117.10
2019-03-02T04:52:51.629Z,112.73
2019-03-02T04:55:21.363Z,104.37
2019-03-02T04:57:51.056Z,117.27
2019-03-02T05:00:20.900Z,111.20
2019-03-02T05:02:51.671Z,103.00
2019-03-02T05:05:21.953Z,106.47
2019-03-02T05:07:51.416Z,101.20
2019-03-02T05:10:24.712Z,100.77
2019-03-02T05:12:53.935Z,95.47
2019-03-02T05:15:23.537Z,116.33
2019-03-02T05:17:53.649Z,109.20
2019-03-02T05:20:23.323Z,134.13
2019-03-02T05:22:54.846Z,114.43
2019-03-02T05:25:23.638Z,102.43
2019-03-02T05:27:53.423Z,97.57
2019-03-02T05:30:23.097Z,101.60
2019-03-02T05:32:52.718Z,91.70
2019-03-02T05:35:22.579Z,97.30
2019-03-02T05:37:52.857Z,93.53
2019-03-02T05:40:24.521Z,95.00
2019-03-02T05:42:54.186Z,99.83
2019-03-02T05:45:24.690Z,98.33
2019-03-02T05:47:53.942Z,105.00
2019-03-02T05:50:26.574Z,91.80
2019-03-02T05:52:55.346Z,87.10
2019-03-02T05:55:24.617Z,86.67
2019-03-02T05:57:53.738Z,81.77
2019-03-02T06:00:24.075Z,85.57
2019-03-02T06:02:54.098Z,87.17
2019-03-02T06:05:23.786Z,84.53
2019-03-02T06:07:53.777Z,89.20
2019-03-02T06:10:25.412Z,87.43
2019-03-02T06:12:55.744Z,91.43
2019-03-02T06:15:25.655Z,97.97
2019-03-02T06:17:55.074Z,92.73
2019-03-02T06:20:24.864Z,93.20
2019-03-02T06:22:55.500Z,111.83
2019-03-02T06:25:26.074Z,126.53
2019-03-02T06:27:55.810Z,113.43
2019-03-02T06:30:25.478Z,111.83
2019-03-02T06:32:54.623Z,96.13
2019-03-02T06:35:25.074Z,86.27
2019-03-02T06:37:56.443Z,84.33
2019-03-02T06:40:26.553Z,65.97
2019-03-02T06:42:56.946Z,72.97
2019-03-02T06:45:27.604Z,68.57
2019-03-02T06:47:57.376Z,71.77
2019-03-02T06:50:26.987Z,91.63
2019-03-02T06:52:57.982Z,73.13
2019-03-02T06:55:27.357Z,75.77
2019-03-02T06:57:57.512Z,75.43
2019-03-02T07:00:27.399Z,60.63
2019-03-02T07:02:57.604Z,65.27
2019-03-02T07:05:29.693Z,66.60
2019-03-02T07:07:58.602Z,82.60
2019-03-02T07:10:28.135Z,77.83
2019-03-02T07:12:59.678Z,73.20
2019-03-02T07:15:29.151Z,76.93
2019-03-02T07:18:17.596Z,82.33
2019-03-02T07:20:47.323Z,68.17
2019-03-02T07:23:17.215Z,73.03
2019-03-02T07:25:46.571Z,69.60
2019-03-02T07:28:15.695Z,58.50
2019-03-02T07:30:45.536Z,62.23
2019-03-02T07:33:15.045Z,62.33
2019-03-02T07:35:44.495Z,58.80
2019-03-02T07:38:16.951Z,54.03
2019-03-02T07:40:45.706Z,48.23
2019-03-02T07:43:17.221Z,52.20
2019-03-02T07:45:47.031Z,47.17
2019-03-02T07:48:16.491Z,50.63
2019-03-02T07:50:46.676Z,47.57
2019-03-02T07:53:16.101Z,46.93
2019-03-02T07:55:45.633Z,40.70
2019-03-02T07:58:16.647Z,50.40
2019-03-02T08:00:46.964Z,46.70
2019-03-02T08:03:16.528Z,42.93
2019-03-02T08:05:46.955Z,41.10
2019-03-02T08:08:17.666Z,31.50
2019-03-02T08:10:47.472Z,27.20
2019-03-02T08:13:17.374Z,28.07
2019-03-02T08:15:46.910Z,24.83
2019-03-02T08:18:16.434Z,29.70
2019-03-02T08:20:46.700Z,35.20
2019-03-02T08:23:16.162Z,27.20
2019-03-02T08:25:46.302Z,22.20
2019-03-02T08:28:15.504Z,19.80
2019-03-02T08:30:44.734Z,23.13
2019-03-02T08:33:14.552Z,36.53
2019-03-02T08:35:44.400Z,34.70
2019-03-02T08:38:14.269Z,36.33
2019-03-02T08:40:43.916Z,29.37
2019-03-02T08:43:16.488Z,32.53
2019-03-02T08:45:44.470Z,29.63
2019-03-02T08:48:14.054Z,39.80
2019-03-02T08:50:45.594Z,36.77
2019-03-02T08:53:14.900Z,35.43
2019-03-02T08:55:44.340Z,35.97
2019-03-02T08:58:13.493Z,36.63
2019-03-02T09:00:44.253Z,34.57
2019-03-02T09:03:13.854Z,37.07
2019-03-02T09:05:51.515Z,38.90
2019-03-02T09:08:16.406Z,37.73
2019-03-02T09:10:49.122Z,40.80
2019-03-02T09:13:18.455Z,42.63
2019-03-02T09:15:47.905Z,37.93
2019-03-02T09:18:17.399Z,43.83
2019-03-02T09:20:46.982Z,50.00
2019-03-02T09:23:17.008Z,32.27
2019-03-02T09:25:46.524Z,36.20
2019-03-02T09:28:16.483Z,37.13
2019-03-02T09:30:46.182Z,40.77
2019-03-02T09:33:16.006Z,38.33
2019-03-02T09:35:49.068Z,39.30
2019-03-02T09:38:20.865Z,21.47
2019-03-02T09:40:50.118Z,22.00
2019-03-02T09:43:20.327Z,24.80
2019-03-02T09:45:49.989Z,23.33
2019-03-02T09:48:21.034Z,19.97
2019-03-02T09:50:51.059Z,19.67
2019-03-02T09:53:20.571Z,22.00
2019-03-02T09:55:52.107Z,25.97
2019-03-02T09:58:24.408Z,22.70
2019-03-02T10:00:56.734Z,21.47
2019-03-02T10:03:26.743Z,25.00
2019-03-02T10:05:57.431Z,27.37
2019-03-02T10:08:27.119Z,25.80
2019-03-02T10:10:57.190Z,21.60
2019-03-02T10:13:26.592Z,26.63
2019-03-02T10:15:56.330Z,26.00
2019-03-02T10:18:26.257Z,24.27
2019-03-02T10:20:56.083Z,23.77
2019-03-02T10:23:25.601Z,25.50
2019-03-02T10:25:57.886Z,25.17
2019-03-02T10:28:30.035Z,25.80
2019-03-02T10:30:58.394Z,21.07
2019-03-02T10:33:28.628Z,21.03
2019-03-02T10:36:00.304Z,21.37
2019-03-02T10:38:31.330Z,21.93
2019-03-02T10:41:01.051Z,21.83
2019-03-02T10:43:30.815Z,21.83
2019-03-02T10:46:00.889Z,22.47
2019-03-02T10:48:30.081Z,22.67
2019-03-02T10:51:02.304Z,23.13
2019-03-02T10:53:31.501Z,22.50
2019-03-02T10:56:01.753Z,23.67
2019-03-02T10:58:34.717Z,27.63
2019-03-02T11:01:06.869Z,25.93
2019-03-02T11:03:34.796Z,24.87
2019-03-02T11:06:15.755Z,28.27
2019-03-02T11:09:04.978Z,25.57
2019-03-02T11:11:56.519Z,23.83
2019-03-02T11:14:54.308Z,31.83
2019-03-02T11:17:58.761Z,35.23
2019-03-02T11:20:39.651Z,30.17
2019-03-02T11:23:26.453Z,31.83
2019-03-02T11:26:13.457Z,35.53
2019-03-02T11:29:10.975Z,42.67
2019-03-02T11:31:57.521Z,38.33
2019-03-02T11:34:44.247Z,40.57
2019-03-02T11:37:25.563Z,35.80
2019-03-02T11:39:59.244Z,40.90
2019-03-02T11:42:39.236Z,40.03
2019-03-02T11:45:19.529Z,41.57
2019-03-02T11:48:09.227Z,33.77
2019-03-02T11:50:58.219Z,37.60
2019-03-02T11:53:55.019Z,40.43
2019-03-02T11:56:39.068Z,40.40
2019-03-02T11:59:25.764Z,34.73
2019-03-02T12:02:15.429Z,39.23
2019-03-02T12:05:00.060Z,40.97
2019-03-02T12:08:06.273Z,37.13
2019-03-02T12:11:03.268Z,34.87
2019-03-02T12:13:38.587Z,40.70
2019-03-02T12:16:26.307Z,35.50
2019-03-02T12:19:14.103Z,38.63
2019-03-02T12:22:18.285Z,31.97
2019-03-02T12:25:00.101Z,44.97
2019-03-02T12:28:07.055Z,38.60
2019-03-02T12:30:58.337Z,44.63
2019-03-02T12:33:41.423Z,45.73
2019-03-02T12:36:17.967Z,40.83
2019-03-02T12:39:07.308Z,39.50
2019-03-02T12:42:03.465Z,43.90
2019-03-02T12:44:57.837Z,42.17
2019-03-02T12:47:50.474Z,48.07
2019-03-02T12:50:39.037Z,46.53
2019-03-02T12:53:39.866Z,42.60
2019-03-02T12:56:29.171Z,47.37
2019-03-02T12:59:29.194Z,51.47
2019-03-02T13:02:21.058Z,46.03
2019-03-02T13:04:59.299Z,44.53
2019-03-02T13:08:00.028Z,37.73
2019-03-02T13:10:54.610Z,42.37
2019-03-02T13:13:43.036Z,38.27
2019-03-02T13:16:50.003Z,39.60
2019-03-02T13:19:38.436Z,38.10
2019-03-02T13:22:26.100Z,33.43
2019-03-02T13:25:06.045Z,32.90
2019-03-02T13:27:47.231Z,32.60
2019-03-02T13:30:47.594Z,31.77
2019-03-02T13:33:35.734Z,28.77
2019-03-02T13:36:11.907Z,29.27
2019-03-02T13:38:56.577Z,32.03
2019-03-02T13:41:54.212Z,31.83
2019-03-02T13:44:43.408Z,30.40
2019-03-02T13:47:34.866Z,31.93
2019-03-02T13:50:32.794Z,31.30
2019-03-02T13:53:19.968Z,28.90
2019-03-02T13:56:04.178Z,31.03
2019-03-02T13:58:59.071Z,30.27
2019-03-02T14:01:41.289Z,26.97
2019-03-02T14:04:32.459Z,34.63
2019-03-02T14:07:23.174Z,31.20
2019-03-02T14:10:11.409Z,29.67
2019-03-02T14:13:14.859Z,26.83
2019-03-02T14:16:10.862Z,32.67
2019-03-02T14:18:55.549Z,34.73
2019-03-02T14:21:50.099Z,38.97
2019-03-02T14:24:38.635Z,54.73
2019-03-02T14:27:30.095Z,87.47
2019-03-02T14:30:21.376Z,75.03
2019-03-02T14:32:54.677Z,84.77
2019-03-02T14:35:48.773Z,48.87
2019-03-02T14:38:40.182Z,51.53
2019-03-02T14:41:18.889Z,48.93
2019-03-02T14:44:06.508Z,52.17
2019-03-02T14:47:10.070Z,54.07
2019-03-02T14:50:01.942Z,98.17
2019-03-02T14:52:47.169Z,48.17
2019-03-02T14:55:35.452Z,52.00
2019-03-02T14:58:21.203Z,47.13
2019-03-02T15:01:10.359Z,46.40
2019-03-02T15:03:56.147Z,50.83
2019-03-02T15:06:55.044Z,50.23
2019-03-02T15:09:45.551Z,52.07
2019-03-02T15:12:31.823Z,50.30
2019-03-02T15:15:20.373Z,51.00
2019-03-02T15:18:23.954Z,57.00
2019-03-02T15:21:30.479Z,56.13
2019-03-02T15:24:14.997Z,56.13
2019-03-02T15:27:16.785Z,60.97
2019-03-02T15:30:04.197Z,54.63
2019-03-02T15:32:58.902Z,50.43
2019-03-02T15:35:40.959Z,58.00
2019-03-02T15:38:32.424Z,58.63
2019-03-02T15:41:30.405Z,48.80
2019-03-02T15:44:17.960Z,55.50
2019-03-02T15:47:09.969Z,58.10
2019-03-02T15:50:08.135Z,59.47
2019-03-02T15:52:48.455Z,62.47
2019-03-02T15:55:28.728Z,71.60
2019-03-02T15:58:23.234Z,65.43
2019-03-02T16:01:07.792Z,72.40
2019-03-02T16:03:57.285Z,70.57
2019-03-02T16:07:02.014Z,64.00
2019-03-02T16:10:05.656Z,66.10
2019-03-02T16:13:06.378Z,69.00
2019-03-02T16:16:01.378Z,64.03
2019-03-02T16:18:44.887Z,77.67
2019-03-02T16:21:28.601Z,87.27
2019-03-02T16:24:05.491Z,88.20
2019-03-02T16:27:02.589Z,77.27
2019-03-02T16:29:41.140Z,78.03
2019-03-02T16:32:45.053Z,81.33
2019-03-02T16:35:29.059Z,81.37
2019-03-02T16:38:27.080Z,82.97
2019-03-02T16:41:22.877Z,77.73
2019-03-02T16:44:16.619Z,73.97
2019-03-02T16:47:11.279Z,78.17
2019-03-02T16:49:55.884Z,75.27
2019-03-02T16:52:49.830Z,81.73
2019-03-02T16:55:50.597Z,84.73
2019-03-02T16:58:37.650Z,82.30
2019-03-02T17:01:26.079Z,82.10
2019-03-02T17:04:32.923Z,84.20
2019-03-02T17:07:22.294Z,80.57
2019-03-02T17:10:30.628Z,74.63
2019-03-02T17:13:19.325Z,82.10
2019-03-02T17:16:06.726Z,81.57
2019-03-02T17:18:46.816Z,82.70
2019-03-02T17:21:41.000Z,77.93
2019-03-02T17:24:36.991Z,76.47
2019-03-02T17:27:24.766Z,77.07
2019-03-02T17:30:11.601Z,79.10
2019-03-02T17:32:51.093Z,75.00
2019-03-02T17:35:40.035Z,82.27
2019-03-02T17:38:28.649Z,83.87
2019-03-02T17:41:20.159Z,88.90
2019-03-02T17:44:08.691Z,92.50
2019-03-02T17:46:50.634Z,97.67
2019-03-02T17:49:36.846Z,89.50
2019-03-02T17:52:23.707Z,92.47
2019-03-02T17:55:12.324Z,94.53
2019-03-02T17:58:09.727Z,99.20
2019-03-02T18:01:00.934Z,97.20
2019-03-02T18:03:50.326Z,99.27
2019-03-02T18:06:32.237Z,88.73
2019-03-02T18:09:30.257Z,97.30
2019-03-02T18:12:33.788Z,94.07
2019-03-02T18:15:22.099Z,95.37
2019-03-02T18:18:04.720Z,100.30
2019-03-02T18:20:35.957Z,94.97
2019-03-02T18:23:06.991Z,102.77
2019-03-02T18:25:36.508Z,99.97
2019-03-02T18:28:10.089Z,106.00
2019-03-02T18:30:38.951Z,105.20
2019-03-02T18:33:36.028Z,104.43
2019-03-02T18:36:05.646Z,109.90
2019-03-02T18:38:35.791Z,112.30
2019-03-02T18:41:05.630Z,109.17
2019-03-02T18:43:35.891Z,114.13
2019-03-02T18:46:05.480Z,128.87
2019-03-02T18:48:52.318Z,131.60
2019-03-02T18:51:40.979Z,135.83
2019-03-02T18:54:13.817Z,139.47
2019-03-02T18:56:44.053Z,146.37
2019-03-02T18:59:13.769Z,159.33
2019-03-02T19:01:44.124Z,150.73
2019-03-02T19:04:14.678Z,143.20
2019-03-02T19:06:44.594Z,150.57
2019-03-02T19:09:13.849Z,153.37
2019-03-02T19:11:43.859Z,146.37
2019-03-02T19:14:16.979Z,154.23
2019-03-02T19:16:44.935Z,161.00
2019-03-02T19:19:14.508Z,155.07
2019-03-02T19:21:44.444Z,157.70
2019-03-02T19:24:14.589Z,156.37
2019-03-02T19:26:44.720Z,158.60
2019-03-02T19:29:14.239Z,156.83
2019-03-02T19:31:44.168Z,148.90
2019-03-02T19:34:13.798Z,156.00
2019-03-02T19:36:43.788Z,157.07
2019-03-02T19:39:22.097Z,153.57
2019-03-02T19:41:51.644Z,171.47
2019-03-02T19:44:20.873Z,158.57
2019-03-02T19:46:50.443Z,162.57
2019-03-02T19:49:20.119Z,161.83
2019-03-02T19:51:49.338Z,173.43
2019-03-02T19:54:18.500Z,165.00
2019-03-02T19:56:47.744Z,158.73
2019-03-02T19:59:17.306Z,153.83
2019-03-02T20:01:49.093Z,155.47
2019-03-02T20:04:20.239Z,154.77
2019-03-02T20:06:49.868Z,158.53
2019-03-02T20:09:19.791Z,153.37
2019-03-02T20:11:48.996Z,151.97
2019-03-02T20:14:18.614Z,157.17
2019-03-02T20:16:48.410Z,164.80
2019-03-02T20:19:18.358Z,163.70
2019-03-02T20:21:48.542Z,156.33
2019-03-02T20:24:17.973Z,176.60
2019-03-02T20:26:47.507Z,173.37
2019-03-02T20:29:17.095Z,172.50
2019-03-02T20:31:47.432Z,185.87
2019-03-02T20:34:17.519Z,185.20
2019-03-02T20:36:47.171Z,192.13
2019-03-02T20:39:16.409Z,233.67
2019-03-02T20:41:46.260Z,243.67
2019-03-02T20:44:15.700Z,265.57
2019-03-02T20:46:45.200Z,264.13
2019-03-02T20:49:14.435Z,283.97
2019-03-02T20:51:43.976Z,291.07
2019-03-02T20:54:13.201Z,278.60
2019-03-02T20:56:43.092Z,277.33
2019-03-02T20:59:12.273Z,279.00
2019-03-02T21:01:42.353Z,271.17
2019-03-02T21:04:11.558Z,258.90
2019-03-02T21:06:41.167Z,269.43
2019-03-02T21:09:10.828Z,232.60
2019-03-02T21:11:40.494Z,239.63
2019-03-02T21:14:09.721Z,235.30
2019-03-02T21:16:40.088Z,231.30
2019-03-02T21:19:09.223Z,225.87
2019-03-02T21:21:39.064Z,220.63
2019-03-02T21:24:08.602Z,211.13
2019-03-02T21:26:38.388Z,208.60
2019-03-02T21:29:08.404Z,211.93
2019-03-02T21:31:38.167Z,196.83
2019-03-02T21:34:07.765Z,188.13
2019-03-02T21:36:38.073Z,186.43
2019-03-02T21:39:08.347Z,170.57
2019-03-02T21:41:37.935Z,176.67
2019-03-02T21:44:07.464Z,142.03
2019-03-02T21:46:37.044Z,159.43
2019-03-02T21:49:06.997Z,185.77
2019-03-02T21:51:36.860Z,180.90
2019-03-02T21:54:06.194Z,216.73
2019-03-02T21:56:36.108Z,216.30
2019-03-02T21:59:05.356Z,215.20
2019-03-02T22:01:35.600Z,218.47
2019-03-02T22:04:05.467Z,208.80
2019-03-02T22:06:35.277Z,197.90
2019-03-02T22:09:06.088Z,205.80
2019-03-02T22:11:35.797Z,207.10
2019-03-02T22:14:05.038Z,201.87
2019-03-02T22:16:34.703Z,185.53
2019-03-02T22:19:04.322Z,184.83
2019-03-02T22:21:33.905Z,168.57
2019-03-02T22:24:03.472Z,179.97
2019-03-02T22:26:33.314Z,183.03
2019-03-02T22:29:02.946Z,181.37
2019-03-02T22:31:32.842Z,177.90
2019-03-02T22:34:02.701Z,177.00
2019-03-02T22:36:31.867Z,176.30
2019-03-02T22:39:01.403Z,171.20
2019-03-02T22:41:30.538Z,153.57
2019-03-02T22:44:00.710Z,164.03
2019-03-02T22:46:29.872Z,162.73
2019-03-02T22:48:59.099Z,169.23
2019-03-02T22:51:28.194Z,160.07
2019-03-02T22:53:57.337Z,154.57
2019-03-02T22:56:26.849Z,141.93
2019-03-02T22:58:54.987Z,143.03
2019-03-02T23:02:00.362Z,135.10
2019-03-02T23:04:30.240Z,137.73
2019-03-02T23:07:00.207Z,115.10
2019-03-02T23:09:30.098Z,130.53
2019-03-02T23:11:59.316Z,123.77
2019-03-02T23:14:28.920Z,133.80
2019-03-02T23:16:58.740Z,123.30
2019-03-02T23:19:28.601Z,125.53
2019-03-02T23:21:57.735Z,136.63
2019-03-02T23:24:28.031Z,125.43
2019-03-02T23:26:57.271Z,120.53
2019-03-02T23:29:27.565Z,129.67
2019-03-02T23:31:57.064Z,122.47
2019-03-02T23:34:36.775Z,123.67
2019-03-02T23:36:58.989Z,107.70
2019-03-02T23:39:28.265Z,111.50
2019-03-02T23:41:58.034Z,116.80
2019-03-02T23:44:27.764Z,110.03
2019-03-02T23:46:57.177Z,109.30
2019-03-02T23:49:26.588Z,104.47
2019-03-02T23:51:55.834Z,107.13
2019-03-02T23:54:25.991Z,107.73
2019-03-02T23:56:55.609Z,103.93
2019-03-02T23:59:24.763Z,107.07
